sensor_id;sensor_type;location;lat;lon;timestamp;pressure;altitude;pressure_sealevel;temperature;humidity
30073;BME280;16897;52.422;13.678;2022-11-20T00:01:42;100810.44;;;3.34;60.13
30073;BME280;16897;52.422;13.678;2022-11-20T00:05:44;100816.41;;;3.36;60.08
30073;BME280;16897;52.422;13.678;2022-11-20T00:09:46;100809.56;;;3.35;59.97
30073;BME280;16897;52.422;13.678;2022-11-20T00:13:54;100802.81;;;3.29;60.27
30073;BME280;16897;52.422;13.678;2022-11-20T00:17:56;100813.00;;;3.34;60.21
30073;BME280;16897;52.422;13.678;2022-11-20T00:21:57;100811.25;;;3.36;60.16
30073;BME280;16897;52.422;13.678;2022-11-20T00:26:09;100804.50;;;3.30;60.12
30073;BME280;16897;52.422;13.678;2022-11-20T00:30:12;100806.16;;;3.33;60.21
30073;BME280;16897;52.422;13.678;2022-11-20T00:34:14;100794.19;;;3.30;60.08
30073;BME280;16897;52.422;13.678;2022-11-20T00:38:15;100809.56;;;3.35;60.06
30073;BME280;16897;52.422;13.678;2022-11-20T00:42:17;100805.34;;;3.31;60.02
30073;BME280;16897;52.422;13.678;2022-11-20T00:46:22;100808.00;;;3.28;60.10
30073;BME280;16897;52.422;13.678;2022-11-20T00:50:24;100825.06;;;3.33;59.91
30073;BME280;16897;52.422;13.678;2022-11-20T00:54:26;100802.09;;;3.23;60.17
30073;BME280;16897;52.422;13.678;2022-11-20T00:58:34;100798.75;;;3.19;60.16
30073;BME280;16897;52.422;13.678;2022-11-20T01:02:36;100803.06;;;3.19;60.08
30073;BME280;16897;52.422;13.678;2022-11-20T01:06:39;100818.47;;;3.22;60.24
30073;BME280;16897;52.422;13.678;2022-11-20T01:10:41;100825.31;;;3.24;60.14
30073;BME280;16897;52.422;13.678;2022-11-20T01:14:43;100821.84;;;3.24;60.06
30073;BME280;16897;52.422;13.678;2022-11-20T01:18:48;100798.09;;;3.11;60.18
30073;BME280;16897;52.422;13.678;2022-11-20T01:22:50;100817.50;;;3.26;60.19
30073;BME280;16897;52.422;13.678;2022-11-20T01:26:52;100812.41;;;3.23;60.17
30073;BME280;16897;52.422;13.678;2022-11-20T01:30:54;100811.59;;;3.22;60.22
30073;BME280;16897;52.422;13.678;2022-11-20T01:34:56;100804.72;;;3.21;60.15
30073;BME280;16897;52.422;13.678;2022-11-20T01:39:01;100798.00;;;3.14;60.05
30073;BME280;16897;52.422;13.678;2022-11-20T01:43:19;100801.53;;;3.10;60.25
30073;BME280;16897;52.422;13.678;2022-11-20T01:47:47;100792.94;;;3.11;60.15
30073;BME280;16897;52.422;13.678;2022-11-20T01:51:59;100786.97;;;3.07;60.23
30073;BME280;16897;52.422;13.678;2022-11-20T01:56:07;100793.69;;;3.15;60.19
30073;BME280;16897;52.422;13.678;2022-11-20T02:00:14;100791.28;;;3.07;60.19
30073;BME280;16897;52.422;13.678;2022-11-20T02:04:27;100775.97;;;3.01;60.17
30073;BME280;16897;52.422;13.678;2022-11-20T02:08:30;100697.09;;;2.55;60.10
30073;BME280;16897;52.422;13.678;2022-11-20T02:12:32;100773.41;;;2.99;60.20
30073;BME280;16897;52.422;13.678;2022-11-20T02:16:55;100786.03;;;3.12;60.03
30073;BME280;16897;52.422;13.678;2022-11-20T02:21:07;100781.72;;;3.10;60.29
30073;BME280;16897;52.422;13.678;2022-11-20T02:25:11;100767.31;;;3.03;60.32
30073;BME280;16897;52.422;13.678;2022-11-20T02:29:16;100768.16;;;3.02;60.10
30073;BME280;16897;52.422;13.678;2022-11-20T02:33:20;100762.16;;;3.02;60.28
30073;BME280;16897;52.422;13.678;2022-11-20T02:37:23;100761.22;;;3.06;60.26
30073;BME280;16897;52.422;13.678;2022-11-20T02:41:35;100776.63;;;3.09;60.14
30073;BME280;16897;52.422;13.678;2022-11-20T02:45:38;100766.31;;;3.09;60.07
30073;BME280;16897;52.422;13.678;2022-11-20T02:49:40;100757.94;;;2.99;60.33
30073;BME280;16897;52.422;13.678;2022-11-20T02:53:41;100774.00;;;3.10;60.04
30073;BME280;16897;52.422;13.678;2022-11-20T02:57:43;100767.22;;;3.06;60.27
30073;BME280;16897;52.422;13.678;2022-11-20T03:01:45;100762.97;;;3.05;60.18
30073;BME280;16897;52.422;13.678;2022-11-20T03:05:47;100753.66;;;3.00;60.30
30073;BME280;16897;52.422;13.678;2022-11-20T03:09:48;100661.16;;;2.47;60.31
30073;BME280;16897;52.422;13.678;2022-11-20T03:13:50;100713.75;;;2.77;60.12
30073;BME280;16897;52.422;13.678;2022-11-20T03:17:55;100759.56;;;3.03;60.22
30073;BME280;16897;52.422;13.678;2022-11-20T03:21:56;100761.25;;;3.04;60.25
30073;BME280;16897;52.422;13.678;2022-11-20T03:26:15;100753.56;;;3.03;60.20
30073;BME280;16897;52.422;13.678;2022-11-20T03:30:17;100757.00;;;3.02;60.25
30073;BME280;16897;52.422;13.678;2022-11-20T03:34:19;100761.25;;;3.04;60.31
30073;BME280;16897;52.422;13.678;2022-11-20T03:38:21;100761.19;;;3.07;60.40
30073;BME280;16897;52.422;13.678;2022-11-20T03:42:23;100738.22;;;2.97;60.27
30073;BME280;16897;52.422;13.678;2022-11-20T03:46:43;100752.66;;;3.05;60.31
30073;BME280;16897;52.422;13.678;2022-11-20T03:50:45;100736.44;;;3.00;60.30
30073;BME280;16897;52.422;13.678;2022-11-20T03:54:49;100746.56;;;3.08;60.15
30073;BME280;16897;52.422;13.678;2022-11-20T03:58:51;100734.69;;;3.01;60.28
30073;BME280;16897;52.422;13.678;2022-11-20T04:02:53;100744.03;;;3.05;60.26
30073;BME280;16897;52.422;13.678;2022-11-20T04:06:55;100745.94;;;2.98;59.96
30073;BME280;16897;52.422;13.678;2022-11-20T04:10:56;100748.34;;;3.04;60.14
30073;BME280;16897;52.422;13.678;2022-11-20T04:14:58;100733.00;;;3.00;60.04
30073;BME280;16897;52.422;13.678;2022-11-20T04:19:03;100741.59;;;3.00;60.44
30073;BME280;16897;52.422;13.678;2022-11-20T04:23:06;100749.16;;;3.06;60.18
30073;BME280;16897;52.422;13.678;2022-11-20T04:27:07;100739.78;;;3.02;60.27
30073;BME280;16897;52.422;13.678;2022-11-20T04:31:16;100739.94;;;2.98;60.07
30073;BME280;16897;52.422;13.678;2022-11-20T04:35:18;100737.28;;;2.99;60.14
30073;BME280;16897;52.422;13.678;2022-11-20T04:39:20;100719.50;;;2.88;60.13
30073;BME280;16897;52.422;13.678;2022-11-20T04:43:22;100730.69;;;2.89;60.36
30073;BME280;16897;52.422;13.678;2022-11-20T04:47:23;100721.16;;;2.91;60.29
30073;BME280;16897;52.422;13.678;2022-11-20T04:51:26;100718.50;;;2.94;60.26
30073;BME280;16897;52.422;13.678;2022-11-20T04:55:28;100710.88;;;2.90;60.36
30073;BME280;16897;52.422;13.678;2022-11-20T04:59:29;100717.63;;;2.95;60.35
30073;BME280;16897;52.422;13.678;2022-11-20T05:03:31;100723.59;;;2.97;60.20
30073;BME280;16897;52.422;13.678;2022-11-20T05:07:33;100709.19;;;2.88;59.98
30073;BME280;16897;52.422;13.678;2022-11-20T05:11:35;100696.34;;;2.87;60.13
30073;BME280;16897;52.422;13.678;2022-11-20T05:15:37;100697.19;;;2.87;60.23
30073;BME280;16897;52.422;13.678;2022-11-20T05:19:39;100697.91;;;2.93;60.35
30073;BME280;16897;52.422;13.678;2022-11-20T05:23:42;100712.50;;;2.94;60.14
30073;BME280;16897;52.422;13.678;2022-11-20T05:27:44;100691.34;;;2.81;60.19
30073;BME280;16897;52.422;13.678;2022-11-20T05:31:46;100707.47;;;2.89;60.21
30073;BME280;16897;52.422;13.678;2022-11-20T05:35:48;100708.34;;;2.88;60.33
30073;BME280;16897;52.422;13.678;2022-11-20T05:39:50;100703.25;;;2.85;60.05
30073;BME280;16897;52.422;13.678;2022-11-20T05:43:52;100690.63;;;2.74;60.17
30073;BME280;16897;52.422;13.678;2022-11-20T05:47:57;100685.47;;;2.73;60.18
30073;BME280;16897;52.422;13.678;2022-11-20T05:51:59;100691.47;;;2.75;60.30
30073;BME280;16897;52.422;13.678;2022-11-20T05:56:08;100689.69;;;2.77;60.16
30073;BME280;16897;52.422;13.678;2022-11-20T06:00:12;100701.56;;;2.84;60.16
30073;BME280;16897;52.422;13.678;2022-11-20T06:04:14;100692.28;;;2.75;60.19
30073;BME280;16897;52.422;13.678;2022-11-20T06:08:16;100681.13;;;2.75;60.25
30073;BME280;16897;52.422;13.678;2022-11-20T06:12:18;100696.41;;;2.84;60.23
30073;BME280;16897;52.422;13.678;2022-11-20T06:16:20;100690.47;;;2.80;60.25
30073;BME280;16897;52.422;13.678;2022-11-20T06:20:22;100687.03;;;2.80;60.30
30073;BME280;16897;52.422;13.678;2022-11-20T06:24:24;100646.41;;;2.54;60.30
30073;BME280;16897;52.422;13.678;2022-11-20T06:28:27;100697.19;;;2.87;60.16
30073;BME280;16897;52.422;13.678;2022-11-20T06:32:29;100677.69;;;2.76;60.25
30073;BME280;16897;52.422;13.678;2022-11-20T06:36:31;100680.13;;;2.82;60.16
30073;BME280;16897;52.422;13.678;2022-11-20T06:40:33;100678.44;;;2.81;60.20
30073;BME280;16897;52.422;13.678;2022-11-20T06:44:34;100702.25;;;2.91;60.23
30073;BME280;16897;52.422;13.678;2022-11-20T06:48:36;100700.56;;;2.90;60.13
30073;BME280;16897;52.422;13.678;2022-11-20T06:52:38;100650.44;;;2.65;60.25
30073;BME280;16897;52.422;13.678;2022-11-20T06:56:40;100665.59;;;2.78;60.28
30073;BME280;16897;52.422;13.678;2022-11-20T07:00:41;100674.06;;;2.83;60.24
30073;BME280;16897;52.422;13.678;2022-11-20T07:04:43;100684.28;;;2.87;60.26
30073;BME280;16897;52.422;13.678;2022-11-20T07:08:45;100681.78;;;2.84;60.25
30073;BME280;16897;52.422;13.678;2022-11-20T07:12:52;100680.19;;;2.79;60.26
30073;BME280;16897;52.422;13.678;2022-11-20T07:16:54;100670.97;;;2.70;60.12
30073;BME280;16897;52.422;13.678;2022-11-20T07:21:04;100699.09;;;2.79;60.29
30073;BME280;16897;52.422;13.678;2022-11-20T07:25:08;100666.84;;;2.61;60.35
30073;BME280;16897;52.422;13.678;2022-11-20T07:29:10;100674.38;;;2.71;60.27
30073;BME280;16897;52.422;13.678;2022-11-20T07:33:12;100683.72;;;2.75;60.48
30073;BME280;16897;52.422;13.678;2022-11-20T07:37:14;100667.59;;;2.66;60.28
30073;BME280;16897;52.422;13.678;2022-11-20T07:41:16;100649.69;;;2.60;60.26
30073;BME280;16897;52.422;13.678;2022-11-20T07:45:23;100662.41;;;2.68;60.11
30073;BME280;16897;52.422;13.678;2022-11-20T07:49:25;100656.47;;;2.64;60.33
30073;BME280;16897;52.422;13.678;2022-11-20T07:53:26;100671.72;;;2.74;60.14
30073;BME280;16897;52.422;13.678;2022-11-20T07:57:28;100657.28;;;2.66;60.41
30073;BME280;16897;52.422;13.678;2022-11-20T08:01:30;100663.31;;;2.65;60.36
30073;BME280;16897;52.422;13.678;2022-11-20T08:05:32;100666.72;;;2.68;60.36
30073;BME280;16897;52.422;13.678;2022-11-20T08:09:34;100675.91;;;2.78;60.37
30073;BME280;16897;52.422;13.678;2022-11-20T08:13:36;100674.19;;;2.78;60.56
30073;BME280;16897;52.422;13.678;2022-11-20T08:18:08;100674.22;;;2.77;60.20
30073;BME280;16897;52.422;13.678;2022-11-20T08:22:09;100675.88;;;2.81;60.37
30073;BME280;16897;52.422;13.678;2022-11-20T08:26:11;100654.59;;;2.71;60.37
30073;BME280;16897;52.422;13.678;2022-11-20T08:30:13;100674.13;;;2.81;60.50
30073;BME280;16897;52.422;13.678;2022-11-20T08:34:15;100664.66;;;2.82;60.57
30073;BME280;16897;52.422;13.678;2022-11-20T08:38:16;100646.97;;;2.66;60.41
30073;BME280;16897;52.422;13.678;2022-11-20T08:42:18;100663.69;;;2.86;60.45
30073;BME280;16897;52.422;13.678;2022-11-20T08:46:20;100667.88;;;2.90;60.36
30073;BME280;16897;52.422;13.678;2022-11-20T08:50:22;100658.41;;;2.91;60.43
30073;BME280;16897;52.422;13.678;2022-11-20T08:54:23;100664.31;;;2.96;60.40
30073;BME280;16897;52.422;13.678;2022-11-20T08:58:26;100650.66;;;2.92;60.33
30073;BME280;16897;52.422;13.678;2022-11-20T09:02:27;100648.09;;;2.91;60.39
30073;BME280;16897;52.422;13.678;2022-11-20T09:06:29;100635.31;;;2.86;60.29
30073;BME280;16897;52.422;13.678;2022-11-20T09:10:31;100651.38;;;2.97;60.46
30073;BME280;16897;52.422;13.678;2022-11-20T09:14:33;100657.38;;;2.98;60.49
30073;BME280;16897;52.422;13.678;2022-11-20T09:18:35;100652.25;;;2.96;60.47
30073;BME280;16897;52.422;13.678;2022-11-20T09:22:39;100644.69;;;2.90;60.35
30073;BME280;16897;52.422;13.678;2022-11-20T09:26:41;100640.41;;;2.89;60.53
30073;BME280;16897;52.422;13.678;2022-11-20T09:30:43;100595.59;;;2.59;60.40
30073;BME280;16897;52.422;13.678;2022-11-20T09:34:45;100655.75;;;2.94;60.62
30073;BME280;16897;52.422;13.678;2022-11-20T09:38:47;100649.09;;;2.85;60.34
30073;BME280;16897;52.422;13.678;2022-11-20T09:43:20;100660.16;;;2.90;60.56
30073;BME280;16897;52.422;13.678;2022-11-20T09:47:54;100654.19;;;2.88;60.24
30073;BME280;16897;52.422;13.678;2022-11-20T09:56:55;100636.38;;;2.79;60.37
30073;BME280;16897;52.422;13.678;2022-11-20T10:01:17;100641.44;;;2.82;60.39
30073;BME280;16897;52.422;13.678;2022-11-20T10:05:29;100627.84;;;2.75;60.40
30073;BME280;16897;52.422;13.678;2022-11-20T10:09:37;100620.97;;;2.76;60.64
30073;BME280;16897;52.422;13.678;2022-11-20T10:32:18;100624.50;;;2.72;60.33
30073;BME280;16897;52.422;13.678;2022-11-20T10:36:28;100619.25;;;2.75;60.42
30073;BME280;16897;52.422;13.678;2022-11-20T10:40:39;100625.06;;;2.84;60.63
30073;BME280;16897;52.422;13.678;2022-11-20T10:44:51;100621.63;;;2.84;60.61
30073;BME280;16897;52.422;13.678;2022-11-20T10:49:11;100602.94;;;2.74;60.47
30073;BME280;16897;52.422;13.678;2022-11-20T10:58:23;100611.19;;;2.88;60.47
30073;BME280;16897;52.422;13.678;2022-11-20T11:06:47;100595.88;;;2.82;60.32
30073;BME280;16897;52.422;13.678;2022-11-20T11:11:00;100586.56;;;2.77;60.46
30073;BME280;16897;52.422;13.678;2022-11-20T11:15:04;100604.97;;;2.97;60.54
30073;BME280;16897;52.422;13.678;2022-11-20T11:19:13;100587.09;;;2.90;60.42
30073;BME280;16897;52.422;13.678;2022-11-20T11:23:35;100595.41;;;3.01;60.28
30073;BME280;16897;52.422;13.678;2022-11-20T11:27:49;100603.78;;;3.09;60.66
30073;BME280;16897;52.422;13.678;2022-11-20T11:32:06;100584.88;;;3.08;60.36
30073;BME280;16897;52.422;13.678;2022-11-20T11:36:21;100572.91;;;3.06;60.40
30073;BME280;16897;52.422;13.678;2022-11-20T11:40:23;100579.47;;;3.18;60.42
30073;BME280;16897;52.422;13.678;2022-11-20T11:44:30;100514.34;;;2.78;60.53
30073;BME280;16897;52.422;13.678;2022-11-20T11:53:16;100575.97;;;3.20;60.46
30073;BME280;16897;52.422;13.678;2022-11-20T11:58:04;100578.50;;;3.22;60.64
30073;BME280;16897;52.422;13.678;2022-11-20T12:06:51;100567.31;;;3.21;60.65
30073;BME280;16897;52.422;13.678;2022-11-20T12:15:46;100549.94;;;3.28;60.56
30073;BME280;16897;52.422;13.678;2022-11-20T12:19:48;100562.59;;;3.37;60.56
30073;BME280;16897;52.422;13.678;2022-11-20T12:28:39;100552.22;;;3.39;60.42
30073;BME280;16897;52.422;13.678;2022-11-20T12:33:12;100561.41;;;3.49;60.54
30073;BME280;16897;52.422;13.678;2022-11-20T12:46:46;100549.13;;;3.57;60.72
30073;BME280;16897;52.422;13.678;2022-11-20T12:56:01;100552.09;;;3.73;60.49
30073;BME280;16897;52.422;13.678;2022-11-20T13:00:25;100530.66;;;3.71;60.72
30073;BME280;16897;52.422;13.678;2022-11-20T13:08:45;100528.66;;;3.79;60.46
30073;BME280;16897;52.422;13.678;2022-11-20T13:13:12;100522.47;;;3.85;60.61
30073;BME280;16897;52.422;13.678;2022-11-20T13:17:47;100513.06;;;3.82;60.57
30073;BME280;16897;52.422;13.678;2022-11-20T13:21:52;100504.44;;;3.83;60.75
30073;BME280;16897;52.422;13.678;2022-11-20T13:26:22;100511.19;;;3.87;60.49
30073;BME280;16897;52.422;13.678;2022-11-20T13:30:26;100505.09;;;3.90;60.46
30073;BME280;16897;52.422;13.678;2022-11-20T13:34:29;100502.53;;;3.88;60.35
30073;BME280;16897;52.422;13.678;2022-11-20T13:38:47;100463.78;;;3.62;60.44
30073;BME280;16897;52.422;13.678;2022-11-20T13:43:38;100484.53;;;3.87;60.72
30073;BME280;16897;52.422;13.678;2022-11-20T13:47:49;100489.63;;;3.88;60.60
30073;BME280;16897;52.422;13.678;2022-11-20T13:51:59;100488.56;;;3.95;60.52
30073;BME280;16897;52.422;13.678;2022-11-20T14:00:48;100485.38;;;3.87;60.44
30073;BME280;16897;52.422;13.678;2022-11-20T14:04:54;100493.81;;;3.92;60.63
30073;BME280;16897;52.422;13.678;2022-11-20T14:08:58;100493.06;;;3.89;60.61
30073;BME280;16897;52.422;13.678;2022-11-20T14:13:20;100509.09;;;4.00;60.59
30073;BME280;16897;52.422;13.678;2022-11-20T14:17:31;100493.75;;;3.94;60.54
30073;BME280;16897;52.422;13.678;2022-11-20T14:21:33;100474.31;;;3.84;60.35
30073;BME280;16897;52.422;13.678;2022-11-20T14:25:35;100482.72;;;3.89;60.53
30073;BME280;16897;52.422;13.678;2022-11-20T14:29:38;100496.34;;;3.94;60.44
30073;BME280;16897;52.422;13.678;2022-11-20T14:33:41;100494.44;;;4.01;60.45
30073;BME280;16897;52.422;13.678;2022-11-20T14:37:43;100487.50;;;4.01;60.49
30073;BME280;16897;52.422;13.678;2022-11-20T14:41:51;100485.16;;;3.93;60.68
30073;BME280;16897;52.422;13.678;2022-11-20T14:46:10;100483.50;;;3.92;60.41
30073;BME280;16897;52.422;13.678;2022-11-20T14:50:29;100489.41;;;3.96;60.32
30073;BME280;16897;52.422;13.678;2022-11-20T14:54:30;100493.72;;;3.95;60.46
30073;BME280;16897;52.422;13.678;2022-11-20T14:58:33;100500.56;;;3.96;60.56
30073;BME280;16897;52.422;13.678;2022-11-20T15:02:41;100492.03;;;3.94;60.48
30073;BME280;16897;52.422;13.678;2022-11-20T15:06:52;100497.28;;;3.91;60.54
30073;BME280;16897;52.422;13.678;2022-11-20T15:10:54;100494.66;;;3.93;60.54
30073;BME280;16897;52.422;13.678;2022-11-20T15:14:56;100485.47;;;3.84;60.46
30073;BME280;16897;52.422;13.678;2022-11-20T15:18:58;100446.50;;;3.64;60.61
30073;BME280;16897;52.422;13.678;2022-11-20T15:23:01;100457.41;;;3.73;60.39
30073;BME280;16897;52.422;13.678;2022-11-20T15:27:02;100459.06;;;3.74;60.42
30073;BME280;16897;52.422;13.678;2022-11-20T15:31:04;100485.31;;;3.89;60.61
30073;BME280;16897;52.422;13.678;2022-11-20T15:35:06;100489.59;;;3.90;60.58
30073;BME280;16897;52.422;13.678;2022-11-20T15:39:08;100471.72;;;3.84;60.72
30073;BME280;16897;52.422;13.678;2022-11-20T15:43:10;100483.69;;;3.86;60.41
30073;BME280;16897;52.422;13.678;2022-11-20T15:47:12;100486.91;;;3.93;60.60
30073;BME280;16897;52.422;13.678;2022-11-20T15:51:21;100488.56;;;3.95;60.57
30073;BME280;16897;52.422;13.678;2022-11-20T15:55:26;100483.50;;;3.92;60.43
30073;BME280;16897;52.422;13.678;2022-11-20T15:59:28;100484.28;;;3.94;60.60
30073;BME280;16897;52.422;13.678;2022-11-20T16:03:29;100488.47;;;3.98;60.64
30073;BME280;16897;52.422;13.678;2022-11-20T16:07:31;100478.13;;;3.98;60.46
30073;BME280;16897;52.422;13.678;2022-11-20T16:11:34;100482.31;;;4.03;60.65
30073;BME280;16897;52.422;13.678;2022-11-20T16:15:38;100474.59;;;4.01;60.66
30073;BME280;16897;52.422;13.678;2022-11-20T16:19:46;100473.66;;;4.04;60.61
30073;BME280;16897;52.422;13.678;2022-11-20T16:23:47;100450.78;;;3.91;60.64
30073;BME280;16897;52.422;13.678;2022-11-20T16:27:49;100457.56;;;3.95;60.40
30073;BME280;16897;52.422;13.678;2022-11-20T16:31:51;100471.91;;;4.04;60.44
30073;BME280;16897;52.422;13.678;2022-11-20T16:35:52;100460.19;;;3.94;60.58
30073;BME280;16897;52.422;13.678;2022-11-20T16:39:54;100470.28;;;4.02;60.63
30073;BME280;16897;52.422;13.678;2022-11-20T16:44:00;100446.50;;;3.92;60.67
30073;BME280;16897;52.422;13.678;2022-11-20T16:48:02;100455.88;;;3.94;60.60
30073;BME280;16897;52.422;13.678;2022-11-20T16:52:04;100458.28;;;3.99;60.50
30073;BME280;16897;52.422;13.678;2022-11-20T16:56:21;100468.03;;;3.91;60.47
30073;BME280;16897;52.422;13.678;2022-11-20T17:00:23;100473.06;;;3.95;60.59
30073;BME280;16897;52.422;13.678;2022-11-20T17:04:24;100476.44;;;3.97;60.47
30073;BME280;16897;52.422;13.678;2022-11-20T17:08:27;100450.28;;;3.80;60.54
30073;BME280;16897;52.422;13.678;2022-11-20T17:12:30;100429.22;;;3.66;60.45
30073;BME280;16897;52.422;13.678;2022-11-20T17:16:34;100468.97;;;3.88;60.47
30073;BME280;16897;52.422;13.678;2022-11-20T17:20:36;100475.75;;;3.92;60.47
30073;BME280;16897;52.422;13.678;2022-11-20T17:24:39;100476.63;;;3.91;60.75
30073;BME280;16897;52.422;13.678;2022-11-20T17:28:43;100394.66;;;3.43;60.63
30073;BME280;16897;52.422;13.678;2022-11-20T17:32:46;100467.44;;;3.83;60.59
30073;BME280;16897;52.422;13.678;2022-11-20T17:36:48;100469.78;;;3.90;60.49
30073;BME280;16897;52.422;13.678;2022-11-20T17:40:50;100471.38;;;3.94;60.45
30073;BME280;16897;52.422;13.678;2022-11-20T17:44:52;100452.78;;;3.83;60.59
30073;BME280;16897;52.422;13.678;2022-11-20T17:48:55;100447.72;;;3.80;60.47
30073;BME280;16897;52.422;13.678;2022-11-20T17:52:57;100416.44;;;3.63;60.53
30073;BME280;16897;52.422;13.678;2022-11-20T17:56:59;100471.38;;;3.94;60.58
30073;BME280;16897;52.422;13.678;2022-11-20T18:01:20;100458.47;;;3.94;60.45
30073;BME280;16897;52.422;13.678;2022-11-20T18:05:21;100456.75;;;3.93;60.47
30073;BME280;16897;52.422;13.678;2022-11-20T18:09:23;100455.88;;;3.94;60.54
30073;BME280;16897;52.422;13.678;2022-11-20T18:13:24;100418.53;;;3.78;60.48
30073;BME280;16897;52.422;13.678;2022-11-20T18:17:47;100439.69;;;3.89;60.39
30073;BME280;16897;52.422;13.678;2022-11-20T18:21:49;100415.88;;;3.80;60.45
30073;BME280;16897;52.422;13.678;2022-11-20T18:25:50;100428.44;;;3.90;60.64
30073;BME280;16897;52.422;13.678;2022-11-20T18:29:52;100418.94;;;3.91;60.54
30073;BME280;16897;52.422;13.678;2022-11-20T18:33:54;100424.91;;;3.93;60.53
30073;BME280;16897;52.422;13.678;2022-11-20T18:37:56;100423.25;;;3.92;60.56
30073;BME280;16897;52.422;13.678;2022-11-20T18:41:58;100415.66;;;3.86;60.45
30073;BME280;16897;52.422;13.678;2022-11-20T18:46:18;100415.03;;;3.79;60.46
30073;BME280;16897;52.422;13.678;2022-11-20T18:50:22;100430.22;;;3.88;60.34
30073;BME280;16897;52.422;13.678;2022-11-20T18:54:24;100422.69;;;3.82;60.43
30073;BME280;16897;52.422;13.678;2022-11-20T18:58:27;100422.69;;;3.82;60.67
30073;BME280;16897;52.422;13.678;2022-11-20T19:02:29;100416.72;;;3.80;60.56
30073;BME280;16897;52.422;13.678;2022-11-20T19:06:30;100412.56;;;3.76;60.63
30073;BME280;16897;52.422;13.678;2022-11-20T19:10:32;100427.88;;;3.81;60.40
30073;BME280;16897;52.422;13.678;2022-11-20T19:14:34;100412.81;;;3.68;60.30
30073;BME280;16897;52.422;13.678;2022-11-20T19:18:35;100406.78;;;3.68;60.24
30073;BME280;16897;52.422;13.678;2022-11-20T19:22:37;100400.97;;;3.61;60.26
30073;BME280;16897;52.422;13.678;2022-11-20T19:26:39;100389.25;;;3.51;60.26
30073;BME280;16897;52.422;13.678;2022-11-20T19:30:41;100424.91;;;3.66;60.34
30073;BME280;16897;52.422;13.678;2022-11-20T19:34:43;100426.69;;;3.64;60.43
30073;BME280;16897;52.422;13.678;2022-11-20T19:38:47;100429.44;;;3.60;60.40
30073;BME280;16897;52.422;13.678;2022-11-20T19:42:50;100430.22;;;3.62;60.28
30073;BME280;16897;52.422;13.678;2022-11-20T19:46:52;100428.56;;;3.59;60.38
30073;BME280;16897;52.422;13.678;2022-11-20T19:50:54;100408.50;;;3.41;60.48
30073;BME280;16897;52.422;13.678;2022-11-20T19:54:58;100366.34;;;3.14;60.32
30073;BME280;16897;52.422;13.678;2022-11-20T19:59:00;100438.28;;;3.51;60.23
30073;BME280;16897;52.422;13.678;2022-11-20T20:03:02;100408.66;;;3.35;60.42
30073;BME280;16897;52.422;13.678;2022-11-20T20:07:04;100428.25;;;3.42;60.22
30073;BME280;16897;52.422;13.678;2022-11-20T20:11:18;100412.81;;;3.40;60.26
30073;BME280;16897;52.422;13.678;2022-11-20T20:15:20;100398.50;;;3.30;60.28
30073;BME280;16897;52.422;13.678;2022-11-20T20:19:22;100412.13;;;3.35;60.35
30073;BME280;16897;52.422;13.678;2022-11-20T20:23:24;100384.91;;;3.25;60.21
30073;BME280;16897;52.422;13.678;2022-11-20T20:27:26;100357.13;;;3.05;60.29
30073;BME280;16897;52.422;13.678;2022-11-20T20:31:32;100395.03;;;3.31;60.23
30073;BME280;16897;52.422;13.678;2022-11-20T20:35:42;100396.91;;;3.26;60.26
30073;BME280;16897;52.422;13.678;2022-11-20T20:39:46;100398.59;;;3.27;60.16
30073;BME280;16897;52.422;13.678;2022-11-20T20:43:47;100389.22;;;3.24;60.23
30073;BME280;16897;52.422;13.678;2022-11-20T20:48:08;100385.13;;;3.17;60.09
30073;BME280;16897;52.422;13.678;2022-11-20T20:52:10;100373.41;;;3.07;60.14
30073;BME280;16897;52.422;13.678;2022-11-20T20:56:12;100353.31;;;2.88;60.12
30073;BME280;16897;52.422;13.678;2022-11-20T21:00:14;100384.84;;;2.98;59.94
30073;BME280;16897;52.422;13.678;2022-11-20T21:04:16;100374.00;;;2.87;59.80
30073;BME280;16897;52.422;13.678;2022-11-20T21:08:18;100360.72;;;2.70;59.81
30073;BME280;16897;52.422;13.678;2022-11-20T21:12:23;100383.84;;;2.73;59.70
30073;BME280;16897;52.422;13.678;2022-11-20T21:16:24;100366.78;;;2.69;60.06
30073;BME280;16897;52.422;13.678;2022-11-20T21:20:26;100341.63;;;2.47;60.04
30073;BME280;16897;52.422;13.678;2022-11-20T21:24:46;100326.44;;;2.36;59.82
30073;BME280;16897;52.422;13.678;2022-11-20T21:28:48;100340.09;;;2.40;59.80
30073;BME280;16897;52.422;13.678;2022-11-20T21:32:50;100327.34;;;2.35;59.77
30073;BME280;16897;52.422;13.678;2022-11-20T21:36:52;100317.19;;;2.29;59.96
30073;BME280;16897;52.422;13.678;2022-11-20T21:40:57;100326.66;;;2.29;59.74
30073;BME280;16897;52.422;13.678;2022-11-20T21:44:58;100331.69;;;2.33;59.75
30073;BME280;16897;52.422;13.678;2022-11-20T21:49:02;100279.44;;;1.97;59.74
30073;BME280;16897;52.422;13.678;2022-11-20T21:53:05;100321.59;;;2.26;59.95
30073;BME280;16897;52.422;13.678;2022-11-20T21:57:06;100317.44;;;2.21;60.00
30073;BME280;16897;52.422;13.678;2022-11-20T22:05:15;100301.50;;;2.07;59.78
30073;BME280;16897;52.422;13.678;2022-11-20T22:09:17;100305.81;;;2.05;59.87
30073;BME280;16897;52.422;13.678;2022-11-20T22:13:19;100296.81;;;1.90;60.04
30073;BME280;16897;52.422;13.678;2022-11-20T22:17:39;100308.47;;;2.04;59.89
30073;BME280;16897;52.422;13.678;2022-11-20T22:21:59;100311.25;;;1.94;60.04
30073;BME280;16897;52.422;13.678;2022-11-20T22:26:07;100296.88;;;1.87;59.75
30073;BME280;16897;52.422;13.678;2022-11-20T22:30:09;100282.59;;;1.75;59.77
30073;BME280;16897;52.422;13.678;2022-11-20T22:34:12;100242.88;;;1.53;59.86
30073;BME280;16897;52.422;13.678;2022-11-20T22:38:14;100296.19;;;1.81;59.83
30073;BME280;16897;52.422;13.678;2022-11-20T22:42:16;100264.81;;;1.66;59.86